Time;durP1;ratioP1;P1;durP2;ratioP2;P2;SDS_P1;SDS_P2;PMS_P1;PMS_P2;Temp;Humidity;BMP_temperature;BMP_pressure;BME280_temperature;BME280_humidity;BME280_pressure;Samples;Min_cycle;Max_cycle;Signal;HPM_P1;HPM_P2
2022/07/03 00:02:13;;;;;;;16.23;3.67;;;14.30;99.90;;;;;;5038556;28;20021;-70
2022/07/03 00:04:41;;;;;;;22.52;2.33;;;14.30;99.90;;;;;;5035774;28;20112;-71
2022/07/03 00:07:08;;;;;;;15.18;2.28;;;14.30;99.90;;;;;;5035027;28;20029;-70
2022/07/03 00:09:35;;;;;;;19.42;2.95;;;14.30;99.90;;;;;;5029759;28;20394;-71
2022/07/03 00:12:03;;;;;;;18.08;3.35;;;14.30;99.90;;;;;;5044067;28;20100;-70
2022/07/03 00:14:31;;;;;;;16.98;2.67;;;14.50;99.90;;;;;;5035591;28;20055;-70
2022/07/03 00:16:59;;;;;;;17.58;1.98;;;14.60;99.90;;;;;;5032885;28;20088;-70
2022/07/03 00:19:26;;;;;;;20.38;2.38;;;14.60;99.90;;;;;;5032023;28;21296;-70
2022/07/03 00:22:08;;;;;;;13.15;2.00;;;14.50;99.50;;;;;;5040827;28;20104;-70
2022/07/03 00:24:48;;;;;;;13.30;2.08;;;14.60;99.50;;;;;;5042443;28;20059;-70
2022/07/03 00:27:17;;;;;;;21.83;3.00;;;14.70;99.70;;;;;;5051617;28;20032;-70
2022/07/03 00:29:46;;;;;;;24.80;4.47;;;14.70;99.50;;;;;;5041749;28;20036;-70
2022/07/03 00:32:18;;;;;;;18.95;2.75;;;14.80;99.10;;;;;;5045859;28;20117;-69
2022/07/03 00:34:49;;;;;;;21.95;2.70;;;14.80;99.00;;;;;;5050289;28;20024;-69
2022/07/03 00:37:17;;;;;;;17.15;3.08;;;14.90;99.10;;;;;;5049238;28;20416;-70
2022/07/03 00:39:44;;;;;;;14.25;2.00;;;14.90;98.50;;;;;;5039060;28;20048;-69
2022/07/03 00:42:13;;;;;;;12.82;1.70;;;14.90;97.90;;;;;;5053019;28;20028;-70
2022/07/03 00:44:50;;;;;;;13.02;1.67;;;15.00;98.80;;;;;;5039533;28;20025;-69
2022/07/03 00:47:19;;;;;;;14.82;2.25;;;15.10;97.60;;;;;;5051322;28;20659;-69
2022/07/03 00:49:48;;;;;;;15.40;2.35;;;15.10;97.70;;;;;;5034110;28;20032;-70
2022/07/03 00:52:18;;;;;;;10.50;1.73;;;15.10;98.00;;;;;;5049553;28;20424;-70
2022/07/03 00:54:52;;;;;;;11.95;2.53;;;15.10;98.00;;;;;;5034375;28;20053;-70
2022/07/03 00:57:21;;;;;;;17.90;2.30;;;15.20;97.70;;;;;;5045178;28;20123;-70
2022/07/03 00:59:50;;;;;;;14.52;1.98;;;15.20;97.90;;;;;;5050712;28;20059;-70
2022/07/03 01:03:11;;;;;;;16.83;2.28;;;15.20;97.40;;;;;;5039810;28;20028;-70
2022/07/03 01:05:42;;;;;;;11.82;2.75;;;15.10;97.40;;;;;;5029348;28;20042;-71
2022/07/03 01:08:46;;;;;;;16.88;2.80;;;15.20;97.50;;;;;;5015152;28;20037;-70
2022/07/03 01:11:27;;;;;;;28.05;4.43;;;15.10;97.70;;;;;;5040956;28;20030;-69
2022/07/03 01:13:55;;;;;;;12.52;3.55;;;15.10;97.80;;;;;;5041143;28;20087;-69
2022/07/03 01:16:31;;;;;;;18.60;3.25;;;15.20;98.00;;;;;;5040413;28;20048;-63
2022/07/03 01:19:33;;;;;;;16.48;2.50;;;15.20;97.30;;;;;;5031907;28;20033;-60
2022/07/03 01:22:19;;;;;;;20.45;2.35;;;15.20;97.60;;;;;;5034037;28;20029;-62
2022/07/03 01:25:10;;;;;;;15.30;4.18;;;15.30;96.50;;;;;;5037172;28;20063;-63
2022/07/03 01:27:56;;;;;;;15.80;3.00;;;15.40;97.00;;;;;;5035841;28;20056;-63
2022/07/03 01:30:24;;;;;;;23.02;3.28;;;15.40;97.00;;;;;;5036322;28;20423;-63
2022/07/03 01:32:59;;;;;;;20.20;4.55;;;15.50;97.20;;;;;;5037692;28;20120;-63
2022/07/03 01:35:37;;;;;;;18.80;2.80;;;15.60;96.90;;;;;;5044167;28;20021;-64
2022/07/03 01:38:08;;;;;;;24.05;4.10;;;15.70;97.30;;;;;;5051450;28;20033;-64
2022/07/03 01:40:37;;;;;;;22.85;2.70;;;15.70;97.00;;;;;;5035551;28;20556;-62
2022/07/03 01:43:14;;;;;;;14.57;2.67;;;15.60;97.30;;;;;;5033700;28;20141;-64
2022/07/03 01:45:48;;;;;;;16.25;3.95;;;15.60;97.00;;;;;;5049191;28;20072;-65
2022/07/03 01:48:16;;;;;;;18.65;3.72;;;15.70;96.60;;;;;;5045052;28;20494;-64
2022/07/03 01:50:46;;;;;;;19.75;3.00;;;15.80;97.10;;;;;;5046808;28;20030;-64
2022/07/03 01:53:15;;;;;;;18.08;2.70;;;15.80;96.70;;;;;;5050717;28;20455;-62
2022/07/03 01:55:43;;;;;;;14.63;3.33;;;15.90;96.30;;;;;;5050206;28;20023;-63
2022/07/03 01:58:11;;;;;;;21.10;3.03;;;15.70;95.10;;;;;;5049613;28;20093;-61
2022/07/03 02:01:03;;;;;;;17.15;2.90;;;15.70;96.20;;;;;;5049510;28;20067;-62
2022/07/03 02:03:34;;;;;;;17.15;3.03;;;15.60;96.20;;;;;;5045436;28;20494;-61
2022/07/03 02:06:15;;;;;;;17.25;3.20;;;15.50;96.30;;;;;;5032500;28;20033;-62
2022/07/03 02:08:54;;;;;;;16.95;3.30;;;15.40;96.20;;;;;;5039005;28;20112;-63
2022/07/03 02:11:25;;;;;;;14.10;2.95;;;15.30;96.00;;;;;;5057661;28;20393;-62
2022/07/03 02:14:12;;;;;;;22.67;2.75;;;15.20;95.90;;;;;;5038625;28;20378;-63
2022/07/03 02:17:15;;;;;;;22.77;3.83;;;15.10;96.20;;;;;;5037530;28;20077;-64
2022/07/03 02:19:59;;;;;;;17.83;2.90;;;15.10;95.90;;;;;;5030529;28;20024;-64
2022/07/03 02:23:09;;;;;;;13.25;2.08;;;15.20;96.50;;;;;;5044282;28;20029;-63
2022/07/03 02:25:40;;;;;;;21.48;3.58;;;15.20;96.50;;;;;;5041264;28;20374;-62
2022/07/03 02:28:30;;;;;;;21.70;5.05;;;15.30;96.50;;;;;;5042113;28;20048;-62
2022/07/03 02:31:03;;;;;;;20.98;3.63;;;15.30;96.40;;;;;;5044388;28;20035;-62
2022/07/03 02:33:32;;;;;;;31.00;4.30;;;15.40;96.50;;;;;;5034156;28;20099;-63
2022/07/03 02:36:01;;;;;;;22.30;4.88;;;15.40;95.90;;;;;;5052382;28;20056;-63
2022/07/03 02:38:29;;;;;;;35.67;3.90;;;15.50;96.30;;;;;;5055531;28;20420;-62
2022/07/03 02:41:20;;;;;;;20.63;3.75;;;15.60;96.50;;;;;;5062869;28;20035;-63
2022/07/03 02:44:01;;;;;;;22.83;4.28;;;15.60;95.70;;;;;;5030749;28;20196;-64
2022/07/03 02:46:49;;;;;;;29.63;4.22;;;15.60;95.40;;;;;;5035928;28;20068;-64
2022/07/03 02:49:28;;;;;;;30.02;4.45;;;15.70;95.60;;;;;;5034478;28;20104;-63
2022/07/03 02:52:16;;;;;;;21.40;3.78;;;15.80;95.70;;;;;;5038060;28;20025;-62
2022/07/03 02:54:48;;;;;;;15.80;2.78;;;16.00;94.90;;;;;;5029769;28;20029;-61
2022/07/03 02:57:19;;;;;;;27.10;5.20;;;16.00;94.00;;;;;;5049160;28;20021;-63
2022/07/03 02:59:54;;;;;;;19.75;3.13;;;16.00;93.30;;;;;;5049826;28;20071;-61
2022/07/03 03:02:24;;;;;;;19.27;4.07;;;16.00;92.70;;;;;;5049503;28;20021;-60
2022/07/03 03:05:07;;;;;;;22.58;4.22;;;16.00;93.30;;;;;;5048241;28;20370;-60
2022/07/03 03:07:53;;;;;;;21.15;3.10;;;16.00;92.40;;;;;;5050220;28;20021;-61
2022/07/03 03:10:21;;;;;;;19.35;2.67;;;16.00;92.90;;;;;;5049605;28;20020;-62
2022/07/03 03:12:58;;;;;;;26.35;4.30;;;15.90;92.50;;;;;;5049372;28;20032;-62
2022/07/03 03:15:30;;;;;;;24.33;3.72;;;15.90;93.50;;;;;;5047395;28;20064;-61
2022/07/03 03:18:03;;;;;;;14.40;3.10;;;15.80;93.80;;;;;;5036024;28;20648;-67
2022/07/03 03:20:33;;;;;;;22.80;2.85;;;15.70;94.00;;;;;;5029468;28;20372;-64
2022/07/03 03:23:24;;;;;;;16.02;2.70;;;15.50;94.40;;;;;;5029292;28;20041;-65
2022/07/03 03:25:54;;;;;;;17.98;3.78;;;15.40;95.40;;;;;;5029371;28;20022;-66
2022/07/03 03:28:22;;;;;;;20.23;3.90;;;15.20;96.60;;;;;;5039323;28;20099;-66
2022/07/03 03:30:50;;;;;;;22.20;4.00;;;15.00;96.90;;;;;;5029615;28;20087;-64
2022/07/03 03:33:18;;;;;;;21.17;3.03;;;14.90;97.20;;;;;;5029334;28;20088;-64
2022/07/03 03:35:45;;;;;;;18.63;2.92;;;14.80;97.30;;;;;;5047514;28;20033;-65
2022/07/03 03:38:13;;;;;;;29.90;4.60;;;14.70;97.70;;;;;;5049276;28;20025;-65
2022/07/03 03:40:40;;;;;;;28.38;4.15;;;14.60;97.80;;;;;;5049085;28;20021;-64
2022/07/03 03:43:08;;;;;;;20.30;3.80;;;14.50;97.70;;;;;;5049213;28;20045;-64
2022/07/03 03:45:35;;;;;;;25.00;5.40;;;14.50;98.30;;;;;;5049486;28;20381;-66
2022/07/03 03:48:02;;;;;;;30.63;4.35;;;14.50;98.50;;;;;;5033312;28;20029;-64
2022/07/03 03:50:29;;;;;;;29.27;4.57;;;14.40;98.40;;;;;;5046188;28;20121;-65
2022/07/03 03:52:59;;;;;;;19.88;3.83;;;14.40;98.70;;;;;;5049123;28;20028;-64
2022/07/03 03:55:26;;;;;;;27.50;4.90;;;14.40;98.30;;;;;;5049229;28;20079;-65
2022/07/03 03:57:53;;;;;;;22.38;3.97;;;14.30;98.60;;;;;;5050922;28;20367;-65
2022/07/03 04:00:20;;;;;;;17.58;3.92;;;14.30;98.70;;;;;;5053294;28;20025;-66
2022/07/03 04:02:48;;;;;;;23.75;4.10;;;14.30;98.50;;;;;;5052936;28;20036;-66
2022/07/03 04:05:15;;;;;;;17.58;2.80;;;14.30;98.80;;;;;;5053009;28;20494;-65
2022/07/03 04:07:42;;;;;;;21.63;3.53;;;14.30;98.50;;;;;;5037196;28;20071;-66
2022/07/03 04:10:09;;;;;;;18.25;4.30;;;14.30;98.60;;;;;;5037764;28;20079;-67
2022/07/03 04:12:37;;;;;;;22.10;4.57;;;14.40;98.70;;;;;;5036142;28;20163;-66
2022/07/03 04:15:04;;;;;;;19.95;3.10;;;14.40;98.60;;;;;;5036651;28;20029;-66
2022/07/03 04:17:32;;;;;;;21.85;3.00;;;14.40;98.40;;;;;;5050545;28;20049;-62
2022/07/03 04:19:59;;;;;;;25.80;3.13;;;14.40;98.50;;;;;;5034366;28;20036;-65
2022/07/03 04:22:27;;;;;;;20.02;4.47;;;14.40;98.50;;;;;;5036919;28;20631;-64
2022/07/03 04:24:54;;;;;;;22.63;2.85;;;14.30;98.60;;;;;;5036240;28;20025;-65
2022/07/03 04:27:21;;;;;;;22.15;3.10;;;14.30;98.80;;;;;;5051770;28;20017;-63
2022/07/03 04:29:48;;;;;;;31.77;3.05;;;14.30;98.80;;;;;;5049965;28;20025;-63
2022/07/03 04:32:15;;;;;;;23.23;4.18;;;14.30;99.40;;;;;;5052529;28;20021;-64
2022/07/03 04:34:43;;;;;;;23.75;5.05;;;14.30;99.30;;;;;;5052332;28;20452;-64
2022/07/03 04:37:10;;;;;;;24.50;4.57;;;14.20;99.30;;;;;;5052564;28;20151;-65
2022/07/03 04:39:37;;;;;;;24.30;3.75;;;14.20;99.50;;;;;;5051537;28;20036;-64
2022/07/03 04:42:04;;;;;;;19.95;5.85;;;14.20;99.40;;;;;;5051007;28;20051;-64
2022/07/03 04:44:32;;;;;;;23.80;3.92;;;14.20;99.30;;;;;;5049968;28;20028;-64
2022/07/03 04:46:59;;;;;;;23.40;3.97;;;14.10;99.20;;;;;;5050165;28;20040;-65
2022/07/03 04:49:26;;;;;;;21.27;3.15;;;14.20;99.20;;;;;;5050575;28;20067;-65
2022/07/03 04:51:55;;;;;;;25.90;4.10;;;14.20;99.30;;;;;;5050436;28;20112;-65
2022/07/03 04:54:23;;;;;;;27.27;3.40;;;14.10;99.40;;;;;;5049045;28;20021;-64
2022/07/03 04:56:50;;;;;;;19.35;3.33;;;14.20;99.30;;;;;;5051227;28;20021;-65
2022/07/03 04:59:17;;;;;;;41.20;4.68;;;14.20;98.90;;;;;;5052097;28;20055;-63
2022/07/03 05:01:44;;;;;;;28.80;4.40;;;14.10;99.10;;;;;;5052081;28;20120;-65
2022/07/03 05:04:11;;;;;;;26.33;7.13;;;14.10;99.10;;;;;;5051923;28;20112;-65
2022/07/03 05:06:42;;;;;;;26.02;4.47;;;14.10;99.30;;;;;;5051864;28;20369;-66
2022/07/03 05:09:09;;;;;;;23.45;3.42;;;14.20;98.90;;;;;;5050864;28;20108;-64
2022/07/03 05:11:40;;;;;;;22.95;3.15;;;14.10;98.90;;;;;;5052009;28;20056;-65
2022/07/03 05:14:08;;;;;;;19.38;3.95;;;14.10;98.70;;;;;;5051696;28;20025;-63
2022/07/03 05:16:35;;;;;;;21.85;3.35;;;14.10;98.10;;;;;;5051506;28;20102;-64
2022/07/03 05:19:02;;;;;;;20.48;2.63;;;14.10;98.30;;;;;;5052004;28;20025;-65
2022/07/03 05:21:30;;;;;;;21.48;2.97;;;14.10;98.50;;;;;;5050238;28;20028;-65
2022/07/03 05:23:57;;;;;;;19.83;2.75;;;14.10;98.60;;;;;;5051629;28;20135;-66
2022/07/03 05:26:24;;;;;;;25.48;2.85;;;14.00;98.60;;;;;;5051674;28;20029;-65
2022/07/03 05:28:52;;;;;;;27.27;4.30;;;14.00;98.80;;;;;;5050016;28;20123;-65
2022/07/03 05:31:19;;;;;;;22.02;3.88;;;14.00;98.50;;;;;;5049861;28;20111;-65
2022/07/03 05:33:46;;;;;;;22.77;2.80;;;14.00;98.60;;;;;;5051387;28;20025;-64
2022/07/03 05:36:14;;;;;;;18.48;2.35;;;13.90;98.50;;;;;;5051423;28;20052;-64
2022/07/03 05:41:26;;;;;;;30.58;4.78;;;13.80;98.20;;;;;;5035884;28;20035;-66
2022/07/03 05:43:53;;;;;;;19.40;2.47;;;13.80;98.30;;;;;;5037661;28;20040;-65
2022/07/03 05:46:20;;;;;;;31.17;9.43;;;13.80;98.20;;;;;;5050745;28;20025;-66
2022/07/03 05:48:48;;;;;;;21.30;4.35;;;13.80;97.90;;;;;;5050610;28;20025;-65
2022/07/03 05:51:15;;;;;;;26.88;7.25;;;13.80;98.00;;;;;;5049734;28;20033;-65
2022/07/03 05:53:42;;;;;;;28.27;3.83;;;13.80;98.00;;;;;;5048170;28;20363;-66
2022/07/03 05:56:09;;;;;;;19.27;2.90;;;13.80;98.30;;;;;;5051041;28;20110;-66
2022/07/03 05:58:36;;;;;;;30.27;3.25;;;13.80;98.30;;;;;;5051336;28;20016;-65
2022/07/03 06:01:04;;;;;;;23.75;2.92;;;13.70;98.50;;;;;;5051248;28;20077;-65
2022/07/03 06:03:31;;;;;;;18.80;2.58;;;13.70;98.50;;;;;;5050743;28;20036;-63
2022/07/03 06:06:00;;;;;;;31.35;3.63;;;13.70;98.20;;;;;;5050725;28;20673;-64
2022/07/03 06:08:28;;;;;;;14.93;2.90;;;13.60;98.20;;;;;;5050840;28;20063;-63
2022/07/03 06:10:55;;;;;;;17.55;2.33;;;13.60;98.30;;;;;;5050788;28;20359;-63
2022/07/03 06:13:23;;;;;;;19.85;2.13;;;13.50;98.30;;;;;;5050787;28;20021;-64
2022/07/03 06:15:50;;;;;;;24.88;3.60;;;13.50;98.60;;;;;;5050049;28;20036;-63
2022/07/03 06:18:17;;;;;;;25.63;4.90;;;13.40;98.80;;;;;;5050647;28;20041;-63
2022/07/03 06:20:45;;;;;;;21.92;4.00;;;13.40;98.90;;;;;;5048826;28;20497;-63
2022/07/03 06:23:12;;;;;;;18.00;3.55;;;13.40;99.10;;;;;;5049147;28;20040;-63
2022/07/03 06:25:39;;;;;;;24.60;6.53;;;13.30;99.40;;;;;;5050489;28;20359;-63
2022/07/03 06:28:09;;;;;;;29.45;7.82;;;13.30;99.50;;;;;;5050288;28;20053;-63
2022/07/03 06:30:36;;;;;;;25.35;6.13;;;13.30;99.70;;;;;;5050569;28;20032;-63
2022/07/03 06:33:03;;;;;;;23.90;5.45;;;13.30;99.70;;;;;;5050481;28;20039;-63
2022/07/03 06:35:31;;;;;;;18.80;5.07;;;13.30;99.80;;;;;;5050183;28;20547;-64
2022/07/03 06:38:02;;;;;;;21.58;4.15;;;13.30;99.90;;;;;;5050039;28;20254;-63
2022/07/03 06:40:29;;;;;;;16.85;5.10;;;13.30;99.90;;;;;;5050240;28;20021;-63
2022/07/03 06:42:57;;;;;;;22.77;4.55;;;13.30;99.90;;;;;;5050143;28;20033;-63
2022/07/03 06:45:24;;;;;;;21.52;3.30;;;13.30;99.90;;;;;;5049679;28;20021;-64
2022/07/03 06:47:51;;;;;;;21.73;3.38;;;13.30;99.90;;;;;;5049755;28;20053;-64
2022/07/03 06:50:18;;;;;;;20.92;3.75;;;13.20;99.90;;;;;;5048580;28;20083;-64
2022/07/03 06:52:46;;;;;;;13.52;2.10;;;13.20;99.90;;;;;;5049966;28;20425;-63
2022/07/03 06:55:13;;;;;;;12.57;1.80;;;13.20;99.90;;;;;;5049880;28;20456;-63
2022/07/03 06:57:41;;;;;;;16.92;3.15;;;13.20;99.90;;;;;;5048578;28;20021;-64
2022/07/03 07:00:09;;;;;;;23.30;3.00;;;13.20;99.90;;;;;;5050278;28;20064;-64
2022/07/03 07:02:36;;;;;;;13.38;2.22;;;13.10;99.90;;;;;;5049945;28;20021;-63
2022/07/03 07:05:04;;;;;;;12.57;1.75;;;13.10;99.90;;;;;;5049851;28;20056;-62
2022/07/03 07:07:31;;;;;;;14.13;1.92;;;13.10;99.90;;;;;;5049789;28;20386;-64
2022/07/03 07:09:58;;;;;;;13.18;1.88;;;13.10;99.90;;;;;;5048552;28;20044;-63
2022/07/03 07:12:25;;;;;;;15.43;2.75;;;13.10;99.90;;;;;;5049523;28;20100;-64
2022/07/03 07:14:53;;;;;;;14.27;2.20;;;13.10;99.90;;;;;;5049434;28;20021;-62
2022/07/03 07:17:20;;;;;;;20.35;3.80;;;13.10;99.90;;;;;;5048705;28;20048;-63
2022/07/03 07:19:47;;;;;;;15.95;2.40;;;13.10;99.90;;;;;;5049450;28;20501;-65
2022/07/03 07:22:15;;;;;;;14.50;3.58;;;13.10;99.90;;;;;;5049690;28;20028;-63
2022/07/03 07:24:42;;;;;;;22.73;3.30;;;13.10;99.90;;;;;;5049373;28;20029;-64
2022/07/03 07:27:09;;;;;;;21.35;2.75;;;13.00;99.90;;;;;;5049607;28;20487;-64
2022/07/03 07:29:36;;;;;;;16.83;3.08;;;13.10;99.90;;;;;;5049635;28;20087;-62
2022/07/03 07:32:04;;;;;;;20.27;2.35;;;13.00;99.90;;;;;;5049007;28;20025;-62
2022/07/03 07:34:31;;;;;;;11.13;2.22;;;13.10;99.90;;;;;;5049367;28;20067;-65
2022/07/03 07:36:58;;;;;;;25.10;2.95;;;13.10;99.90;;;;;;5049043;28;20463;-64
2022/07/03 07:39:26;;;;;;;19.80;2.40;;;13.10;99.90;;;;;;5049242;28;20025;-65
2022/07/03 07:41:53;;;;;;;19.25;2.33;;;13.10;99.90;;;;;;5049149;28;20025;-65
2022/07/03 07:44:20;;;;;;;15.18;2.72;;;13.10;99.90;;;;;;5048847;28;20082;-65
2022/07/03 07:46:47;;;;;;;25.25;4.55;;;13.10;99.90;;;;;;5047310;28;20025;-64
2022/07/03 07:49:15;;;;;;;11.02;2.58;;;13.10;99.90;;;;;;5046527;28;20552;-64
2022/07/03 07:51:42;;;;;;;22.58;4.82;;;13.20;99.90;;;;;;5033447;28;20029;-64
2022/07/03 07:54:09;;;;;;;20.83;4.22;;;13.20;99.90;;;;;;5036334;28;20033;-66
2022/07/03 07:56:39;;;;;;;21.50;4.30;;;13.20;99.90;;;;;;5036237;28;20193;-67
2022/07/03 07:59:06;;;;;;;18.10;4.40;;;13.20;99.90;;;;;;5039543;28;20383;-67
2022/07/03 08:07:05;;;;;;;19.20;3.05;;;13.20;99.90;;;;;;5036244;28;20029;-67
2022/07/03 08:09:32;;;;;;;15.50;2.80;;;13.30;99.90;;;;;;5044891;28;20056;-67
2022/07/03 08:11:59;;;;;;;22.65;3.28;;;13.30;99.90;;;;;;5043495;28;20138;-68
2022/07/03 08:14:26;;;;;;;21.42;2.40;;;13.30;99.90;;;;;;5037666;28;20018;-68
2022/07/03 08:16:54;;;;;;;13.68;2.33;;;13.30;99.90;;;;;;5041600;28;20087;-65
2022/07/03 08:19:21;;;;;;;14.57;3.10;;;13.30;99.90;;;;;;5039782;28;20533;-65
2022/07/03 08:21:48;;;;;;;22.70;4.78;;;13.30;99.90;;;;;;5036092;28;20054;-67
2022/07/03 08:24:16;;;;;;;19.67;2.50;;;13.30;99.90;;;;;;5033119;28;20033;-67
2022/07/03 08:26:43;;;;;;;17.55;2.28;;;13.30;99.90;;;;;;5033884;28;20147;-67
2022/07/03 08:29:11;;;;;;;13.93;3.40;;;13.30;99.90;;;;;;5039860;28;20027;-67
2022/07/03 08:31:38;;;;;;;17.20;2.15;;;13.30;99.90;;;;;;5049586;28;20478;-66
2022/07/03 08:34:05;;;;;;;27.80;3.47;;;13.30;99.90;;;;;;5048500;28;20021;-65
2022/07/03 08:36:33;;;;;;;16.80;3.85;;;13.30;99.90;;;;;;5046058;28;20473;-66
2022/07/03 08:39:00;;;;;;;28.90;8.32;;;13.30;99.90;;;;;;5034463;28;20029;-67
2022/07/03 08:41:28;;;;;;;26.08;6.05;;;13.30;99.90;;;;;;5032371;28;20025;-64
2022/07/03 08:43:57;;;;;;;19.83;4.35;;;13.30;99.90;;;;;;5038223;28;20099;-65
2022/07/03 08:46:25;;;;;;;21.42;4.22;;;13.30;99.90;;;;;;5039403;28;20386;-65
2022/07/03 08:48:54;;;;;;;16.92;5.57;;;13.30;99.90;;;;;;5039470;28;20027;-65
2022/07/03 08:51:21;;;;;;;26.70;6.65;;;13.30;99.90;;;;;;5038373;28;20024;-65
2022/07/03 08:53:50;;;;;;;28.02;4.93;;;13.30;99.90;;;;;;5052443;28;20066;-66
2022/07/03 08:56:18;;;;;;;31.92;6.13;;;13.40;99.80;;;;;;5045559;28;20025;-66
2022/07/03 08:58:45;;;;;;;19.58;4.47;;;13.40;99.80;;;;;;5053563;28;20055;-67
2022/07/03 09:01:16;;;;;;;22.73;5.22;;;13.40;99.70;;;;;;5053863;28;20061;-66
2022/07/03 09:03:45;;;;;;;32.08;5.75;;;13.40;99.80;;;;;;5060832;28;20054;-67
2022/07/03 09:06:17;;;;;;;24.13;3.75;;;13.40;99.80;;;;;;5057436;28;20028;-68
2022/07/03 09:08:46;;;;;;;20.17;3.97;;;13.40;99.90;;;;;;5068806;28;20119;-67
2022/07/03 09:11:13;;;;;;;30.85;3.72;;;13.40;99.90;;;;;;5053293;28;20021;-67
2022/07/03 09:13:41;;;;;;;23.25;3.17;;;13.40;99.90;;;;;;5060487;28;20048;-67
2022/07/03 09:16:16;;;;;;;19.60;2.90;;;13.40;99.90;;;;;;5044044;28;20040;-67
2022/07/03 09:18:45;;;;;;;14.45;2.90;;;13.40;99.90;;;;;;5057046;28;20013;-67
2022/07/03 09:21:13;;;;;;;22.77;3.95;;;13.40;99.90;;;;;;5057267;28;20120;-67
2022/07/03 09:23:42;;;;;;;25.63;3.33;;;13.50;99.90;;;;;;5053205;28;20120;-65
2022/07/03 09:26:21;;;;;;;24.02;2.88;;;13.40;99.90;;;;;;5046242;28;20108;-64
2022/07/03 09:28:55;;;;;;;19.13;2.63;;;13.40;99.90;;;;;;5042971;28;20456;-65
2022/07/03 09:31:30;;;;;;;26.08;3.35;;;13.40;99.90;;;;;;5041568;28;20091;-65
2022/07/03 09:34:03;;;;;;;15.75;2.75;;;13.40;99.90;;;;;;5040535;28;20061;-64
2022/07/03 09:36:46;;;;;;;23.92;4.70;;;13.40;99.90;;;;;;5050231;28;20024;-64
2022/07/03 09:39:25;;;;;;;27.05;5.93;;;13.40;99.90;;;;;;5057017;28;20039;-65
2022/07/03 09:42:02;;;;;;;39.53;8.55;;;13.40;99.90;;;;;;5045889;28;20036;-66
2022/07/03 09:44:46;;;;;;;20.50;7.93;;;13.40;99.90;;;;;;5046474;28;20048;-66
2022/07/03 09:47:25;;;;;;;21.15;6.72;;;13.40;99.90;;;;;;5045442;28;20091;-64
2022/07/03 09:50:02;;;;;;;25.45;6.28;;;13.40;99.90;;;;;;5033624;28;20120;-66
2022/07/03 09:52:43;;;;;;;13.18;2.40;;;13.40;99.90;;;;;;5037175;28;20032;-66
2022/07/03 09:55:10;;;;;;;18.77;2.35;;;13.40;99.90;;;;;;5022319;28;20112;-65
2022/07/03 09:57:49;;;;;;;13.57;2.58;;;13.40;99.90;;;;;;5048255;28;20032;-64
2022/07/03 10:00:18;;;;;;;11.15;3.20;;;13.50;99.90;;;;;;5057818;28;20025;-67
2022/07/03 10:03:10;;;;;;;10.30;3.00;;;13.40;99.90;;;;;;5038159;28;20040;-66
2022/07/03 10:05:42;;;;;;;13.30;3.03;;;13.50;99.90;;;;;;5035398;28;20025;-67
2022/07/03 10:08:11;;;;;;;15.80;2.20;;;13.50;99.90;;;;;;5042113;28;20087;-66
2022/07/03 10:10:42;;;;;;;12.88;1.95;;;13.50;99.90;;;;;;5041472;28;20025;-65
2022/07/03 10:13:09;;;;;;;12.05;1.60;;;13.50;99.90;;;;;;5036602;28;20032;-68
2022/07/03 10:15:40;;;;;;;11.70;1.60;;;13.50;99.90;;;;;;5047288;28;20029;-66
2022/07/03 10:18:10;;;;;;;9.68;1.45;;;13.50;99.90;;;;;;5037369;28;20676;-65
2022/07/03 10:20:41;;;;;;;9.35;1.40;;;13.50;99.90;;;;;;5043344;28;20024;-63
2022/07/03 10:23:09;;;;;;;15.27;1.35;;;13.50;99.90;;;;;;5054987;28;20123;-64
2022/07/03 10:25:40;;;;;;;15.93;1.88;;;13.40;99.90;;;;;;5042662;28;20418;-62
2022/07/03 10:28:08;;;;;;;10.45;1.55;;;13.40;99.90;;;;;;5041225;28;20120;-64
2022/07/03 10:30:36;;;;;;;10.07;2.20;;;13.40;99.90;;;;;;5049318;28;20374;-65
2022/07/03 10:33:03;;;;;;;12.50;2.25;;;13.40;99.90;;;;;;5047287;28;20033;-65
2022/07/03 10:35:37;;;;;;;6.32;1.45;;;13.40;99.90;;;;;;5043970;28;20474;-66
2022/07/03 10:38:28;;;;;;;13.80;1.75;;;13.40;99.90;;;;;;5055930;28;20486;-64
2022/07/03 10:46:43;;;;;;;8.13;0.98;;;13.40;99.90;;;;;;5034747;28;20090;-63
2022/07/03 10:49:11;;;;;;;5.30;1.35;;;13.50;99.90;;;;;;5031569;28;20025;-63
2022/07/03 10:51:52;;;;;;;8.18;0.90;;;13.50;99.90;;;;;;5038915;28;20032;-63
2022/07/03 10:54:24;;;;;;;10.32;1.13;;;13.50;99.90;;;;;;5032648;28;20144;-63
2022/07/03 10:57:00;;;;;;;9.65;1.63;;;13.50;99.90;;;;;;5030426;28;20025;-63
2022/07/03 10:59:48;;;;;;;9.25;1.80;;;13.50;99.90;;;;;;5047906;28;20025;-64
2022/07/03 11:02:22;;;;;;;16.75;4.15;;;13.50;99.90;;;;;;5057785;28;20024;-63
2022/07/03 11:05:04;;;;;;;13.98;1.33;;;13.50;99.90;;;;;;5030382;28;20037;-63
2022/07/03 11:07:32;;;;;;;14.73;1.60;;;13.50;99.90;;;;;;5036201;28;20056;-64
2022/07/03 11:10:14;;;;;;;13.25;2.58;;;13.50;99.90;;;;;;5042921;28;20195;-62
2022/07/03 11:13:00;;;;;;;17.70;2.08;;;13.50;99.90;;;;;;5036958;28;20028;-65
2022/07/03 11:15:49;;;;;;;19.60;3.17;;;13.50;99.90;;;;;;5049415;28;20111;-65
2022/07/03 11:18:35;;;;;;;19.23;5.22;;;13.50;99.90;;;;;;5041371;28;20541;-64
2022/07/03 11:21:13;;;;;;;22.35;3.47;;;13.60;99.90;;;;;;5048488;28;20112;-64
2022/07/03 11:23:59;;;;;;;21.88;3.80;;;13.60;99.90;;;;;;5038527;28;20068;-65
2022/07/03 11:26:26;;;;;;;27.75;4.18;;;13.60;99.90;;;;;;5031725;28;20029;-63
2022/07/03 11:28:54;;;;;;;17.23;3.20;;;13.60;99.90;;;;;;5043562;28;20056;-65
2022/07/03 11:31:25;;;;;;;20.52;4.30;;;13.60;99.90;;;;;;5045315;28;20068;-67
2022/07/03 11:33:52;;;;;;;20.17;4.80;;;13.60;99.90;;;;;;5058725;28;20028;-66
2022/07/03 11:36:30;;;;;;;24.90;3.83;;;13.60;99.90;;;;;;5040787;28;20021;-65
2022/07/03 11:38:57;;;;;;;19.25;3.90;;;13.60;99.90;;;;;;5040151;28;20056;-65
2022/07/03 11:41:26;;;;;;;12.13;2.90;;;13.60;99.90;;;;;;5038227;28;20450;-65
2022/07/03 11:43:59;;;;;;;16.15;2.75;;;13.60;99.90;;;;;;5039455;28;20179;-66
2022/07/03 11:46:29;;;;;;;13.82;1.98;;;13.60;99.80;;;;;;5039966;28;20151;-67
2022/07/03 11:49:10;;;;;;;17.15;2.25;;;13.60;99.90;;;;;;5048289;28;20115;-67
2022/07/03 11:51:39;;;;;;;13.93;2.88;;;13.60;99.90;;;;;;5039804;28;20370;-66
2022/07/03 11:54:07;;;;;;;14.20;2.70;;;13.60;99.80;;;;;;5039183;28;20525;-66
2022/07/03 11:56:36;;;;;;;14.02;3.25;;;13.50;99.80;;;;;;5036518;28;20075;-66
2022/07/03 11:59:07;;;;;;;22.25;2.45;;;13.50;99.70;;;;;;5041687;28;20033;-66
2022/07/03 12:01:40;;;;;;;16.08;3.42;;;13.50;99.80;;;;;;5041756;28;20426;-66
2022/07/03 12:04:16;;;;;;;16.08;2.50;;;13.50;99.90;;;;;;5037416;28;20141;-65
2022/07/03 12:06:48;;;;;;;19.92;3.30;;;13.60;99.90;;;;;;5039937;28;20039;-65
2022/07/03 12:09:18;;;;;;;22.65;3.03;;;13.50;99.90;;;;;;5037691;28;20021;-66
2022/07/03 12:11:57;;;;;;;19.65;3.20;;;13.60;99.90;;;;;;5044398;28;20040;-65
2022/07/03 12:14:49;;;;;;;24.77;4.50;;;13.50;99.90;;;;;;5046117;28;20107;-65
2022/07/03 12:17:18;;;;;;;17.25;3.67;;;13.60;99.90;;;;;;5041863;28;20037;-66
2022/07/03 12:20:07;;;;;;;16.25;2.38;;;13.60;99.90;;;;;;5049016;28;20032;-67
2022/07/03 12:22:41;;;;;;;23.20;3.28;;;13.60;99.90;;;;;;5045180;28;20017;-64
2022/07/03 12:25:12;;;;;;;13.70;2.13;;;13.60;99.90;;;;;;5046802;28;20104;-67
2022/07/03 12:27:44;;;;;;;21.17;5.38;;;13.60;99.90;;;;;;5052434;28;20027;-66
2022/07/03 12:30:25;;;;;;;15.10;2.05;;;13.60;99.90;;;;;;5050057;28;20025;-68
2022/07/03 12:32:52;;;;;;;14.60;2.75;;;13.60;99.90;;;;;;5047016;28;20055;-69
2022/07/03 12:35:27;;;;;;;20.80;2.83;;;13.60;99.90;;;;;;5048831;28;20148;-68
2022/07/03 12:37:54;;;;;;;17.98;1.85;;;13.60;99.90;;;;;;5042829;28;20025;-69
2022/07/03 12:40:21;;;;;;;12.20;3.95;;;13.60;99.90;;;;;;5051455;28;20048;-69
2022/07/03 12:42:54;;;;;;;19.20;1.95;;;13.60;99.90;;;;;;5044874;28;20037;-65
2022/07/03 12:45:23;;;;;;;16.98;4.53;;;13.60;99.90;;;;;;5045377;28;20032;-66
2022/07/03 12:48:06;;;;;;;23.20;3.00;;;13.60;99.90;;;;;;5053703;28;20045;-66
2022/07/03 12:50:52;;;;;;;19.95;2.03;;;13.60;99.90;;;;;;5046740;28;20025;-64
2022/07/03 12:53:34;;;;;;;16.27;2.30;;;13.50;99.90;;;;;;5050246;28;20033;-66
2022/07/03 12:56:03;;;;;;;16.83;3.22;;;13.50;99.90;;;;;;5049453;28;20025;-66
2022/07/03 13:01:38;;;;;;;15.82;3.63;;;13.60;99.90;;;;;;5049786;28;20059;-68
2022/07/03 13:04:14;;;;;;;16.58;2.45;;;13.50;99.90;;;;;;5044833;28;20397;-68
2022/07/03 13:06:45;;;;;;;16.42;3.15;;;13.60;99.90;;;;;;5044818;28;20019;-66
2022/07/03 13:09:15;;;;;;;13.93;2.28;;;13.60;99.90;;;;;;5055756;28;20079;-67
2022/07/03 13:11:43;;;;;;;19.52;2.83;;;13.60;99.90;;;;;;5044778;28;20017;-67
2022/07/03 13:14:10;;;;;;;19.17;4.32;;;13.70;99.90;;;;;;5045441;28;20025;-67
2022/07/03 13:16:40;;;;;;;20.67;2.88;;;13.70;99.90;;;;;;5040537;28;20051;-67
2022/07/03 13:19:08;;;;;;;14.32;2.47;;;13.70;99.90;;;;;;5050863;28;20025;-68